sensor_id;sensor_type;location;lat;lon;timestamp;temperature;humidity
65408;DHT22;52017;51.230;-2.322;2022-07-22T00:02:34;21.90;55.20
65408;DHT22;52017;51.230;-2.322;2022-07-22T00:06:16;21.80;55.20
65408;DHT22;52017;51.230;-2.322;2022-07-22T00:09:59;21.80;55.30
65408;DHT22;52017;51.230;-2.322;2022-07-22T00:13:41;21.80;55.40
65408;DHT22;52017;51.230;-2.322;2022-07-22T00:17:23;21.70;55.50
65408;DHT22;52017;51.230;-2.322;2022-07-22T00:21:05;21.50;55.70
65408;DHT22;52017;51.230;-2.322;2022-07-22T00:24:52;21.50;55.80
65408;DHT22;52017;51.230;-2.322;2022-07-22T00:28:34;21.30;56.10
65408;DHT22;52017;51.230;-2.322;2022-07-22T00:32:16;21.20;56.30
65408;DHT22;52017;51.230;-2.322;2022-07-22T00:35:58;21.10;56.90
65408;DHT22;52017;51.230;-2.322;2022-07-22T00:39:40;21.10;57.70
65408;DHT22;52017;51.230;-2.322;2022-07-22T00:43:22;21.00;58.30
65408;DHT22;52017;51.230;-2.322;2022-07-22T00:47:05;20.90;58.90
65408;DHT22;52017;51.230;-2.322;2022-07-22T00:50:47;20.80;59.50
65408;DHT22;52017;51.230;-2.322;2022-07-22T00:54:30;20.70;59.60
65408;DHT22;52017;51.230;-2.322;2022-07-22T00:58:12;20.70;60.00
65408;DHT22;52017;51.230;-2.322;2022-07-22T01:01:54;20.60;60.10
65408;DHT22;52017;51.230;-2.322;2022-07-22T01:05:38;20.60;59.80
65408;DHT22;52017;51.230;-2.322;2022-07-22T01:09:20;20.50;60.40
65408;DHT22;52017;51.230;-2.322;2022-07-22T01:13:02;20.50;60.80
65408;DHT22;52017;51.230;-2.322;2022-07-22T01:16:44;20.40;60.90
65408;DHT22;52017;51.230;-2.322;2022-07-22T01:20:30;20.40;61.10
65408;DHT22;52017;51.230;-2.322;2022-07-22T01:24:13;20.50;60.60
65408;DHT22;52017;51.230;-2.322;2022-07-22T01:27:55;20.40;61.10
65408;DHT22;52017;51.230;-2.322;2022-07-22T01:31:37;20.40;61.10
65408;DHT22;52017;51.230;-2.322;2022-07-22T01:35:19;20.30;61.30
65408;DHT22;52017;51.230;-2.322;2022-07-22T01:39:02;20.30;61.30
65408;DHT22;52017;51.230;-2.322;2022-07-22T01:42:44;20.40;61.30
65408;DHT22;52017;51.230;-2.322;2022-07-22T01:46:26;20.30;61.40
65408;DHT22;52017;51.230;-2.322;2022-07-22T01:50:10;20.30;61.50
65408;DHT22;52017;51.230;-2.322;2022-07-22T01:53:53;20.20;61.70
65408;DHT22;52017;51.230;-2.322;2022-07-22T01:57:38;20.20;61.60
65408;DHT22;52017;51.230;-2.322;2022-07-22T02:01:20;20.20;62.00
65408;DHT22;52017;51.230;-2.322;2022-07-22T02:05:05;20.20;61.70
65408;DHT22;52017;51.230;-2.322;2022-07-22T02:08:47;20.20;62.00
65408;DHT22;52017;51.230;-2.322;2022-07-22T02:12:29;20.20;61.90
65408;DHT22;52017;51.230;-2.322;2022-07-22T02:16:11;20.20;62.20
65408;DHT22;52017;51.230;-2.322;2022-07-22T02:20:01;20.20;62.40
65408;DHT22;52017;51.230;-2.322;2022-07-22T02:23:43;20.20;62.40
65408;DHT22;52017;51.230;-2.322;2022-07-22T02:27:25;20.20;62.50
65408;DHT22;52017;51.230;-2.322;2022-07-22T02:31:07;20.20;62.70
65408;DHT22;52017;51.230;-2.322;2022-07-22T02:34:50;20.20;62.90
65408;DHT22;52017;51.230;-2.322;2022-07-22T02:38:33;20.20;62.50
65408;DHT22;52017;51.230;-2.322;2022-07-22T02:42:15;20.20;62.50
65408;DHT22;52017;51.230;-2.322;2022-07-22T02:45:57;20.20;62.40
65408;DHT22;52017;51.230;-2.322;2022-07-22T02:49:39;20.10;62.70
65408;DHT22;52017;51.230;-2.322;2022-07-22T02:53:21;20.10;62.70
65408;DHT22;52017;51.230;-2.322;2022-07-22T02:57:03;20.10;62.70
65408;DHT22;52017;51.230;-2.322;2022-07-22T03:00:46;20.10;62.80
65408;DHT22;52017;51.230;-2.322;2022-07-22T03:04:28;20.10;62.90
65408;DHT22;52017;51.230;-2.322;2022-07-22T03:08:10;20.10;62.90
65408;DHT22;52017;51.230;-2.322;2022-07-22T03:11:53;20.10;63.20
65408;DHT22;52017;51.230;-2.322;2022-07-22T03:15:35;20.00;63.20
65408;DHT22;52017;51.230;-2.322;2022-07-22T03:19:17;20.00;63.70
65408;DHT22;52017;51.230;-2.322;2022-07-22T03:22:59;20.00;63.50
65408;DHT22;52017;51.230;-2.322;2022-07-22T03:26:41;20.00;63.80
65408;DHT22;52017;51.230;-2.322;2022-07-22T03:30:24;20.00;63.90
65408;DHT22;52017;51.230;-2.322;2022-07-22T03:34:06;20.00;64.00
65408;DHT22;52017;51.230;-2.322;2022-07-22T03:37:48;20.00;64.10
65408;DHT22;52017;51.230;-2.322;2022-07-22T03:41:30;19.90;64.10
65408;DHT22;52017;51.230;-2.322;2022-07-22T03:45:13;19.90;64.30
65408;DHT22;52017;51.230;-2.322;2022-07-22T03:48:55;19.80;64.60
65408;DHT22;52017;51.230;-2.322;2022-07-22T03:52:37;19.80;64.90
65408;DHT22;52017;51.230;-2.322;2022-07-22T03:56:19;19.70;64.90
65408;DHT22;52017;51.230;-2.322;2022-07-22T04:00:03;19.70;65.20
65408;DHT22;52017;51.230;-2.322;2022-07-22T04:03:45;19.70;65.20
65408;DHT22;52017;51.230;-2.322;2022-07-22T04:07:27;19.70;65.90
65408;DHT22;52017;51.230;-2.322;2022-07-22T04:11:10;19.60;65.60
65408;DHT22;52017;51.230;-2.322;2022-07-22T04:14:52;19.60;65.50
65408;DHT22;52017;51.230;-2.322;2022-07-22T04:18:34;19.60;65.50
65408;DHT22;52017;51.230;-2.322;2022-07-22T04:22:16;19.60;65.60
65408;DHT22;52017;51.230;-2.322;2022-07-22T04:25:58;19.60;65.60
65408;DHT22;52017;51.230;-2.322;2022-07-22T04:29:40;19.60;65.60
65408;DHT22;52017;51.230;-2.322;2022-07-22T04:33:22;19.70;65.50
65408;DHT22;52017;51.230;-2.322;2022-07-22T04:37:05;19.70;65.70
65408;DHT22;52017;51.230;-2.322;2022-07-22T04:40:47;19.70;65.70
65408;DHT22;52017;51.230;-2.322;2022-07-22T04:44:35;19.70;65.80
65408;DHT22;52017;51.230;-2.322;2022-07-22T04:48:17;19.80;65.70
65408;DHT22;52017;51.230;-2.322;2022-07-22T04:51:59;19.80;65.70
65408;DHT22;52017;51.230;-2.322;2022-07-22T04:55:42;19.80;65.70
65408;DHT22;52017;51.230;-2.322;2022-07-22T04:59:24;19.90;65.60
65408;DHT22;52017;51.230;-2.322;2022-07-22T05:03:06;19.90;65.70
65408;DHT22;52017;51.230;-2.322;2022-07-22T05:06:48;19.90;65.60
65408;DHT22;52017;51.230;-2.322;2022-07-22T05:10:30;19.80;65.50
65408;DHT22;52017;51.230;-2.322;2022-07-22T05:14:14;19.80;65.40
65408;DHT22;52017;51.230;-2.322;2022-07-22T05:17:56;19.80;65.40
65408;DHT22;52017;51.230;-2.322;2022-07-22T05:21:38;19.80;65.40
65408;DHT22;52017;51.230;-2.322;2022-07-22T05:25:20;19.90;65.20
65408;DHT22;52017;51.230;-2.322;2022-07-22T05:29:03;19.80;65.00
65408;DHT22;52017;51.230;-2.322;2022-07-22T05:32:45;19.80;65.00
65408;DHT22;52017;51.230;-2.322;2022-07-22T05:36:27;19.90;64.90
65408;DHT22;52017;51.230;-2.322;2022-07-22T05:40:10;20.00;64.80
65408;DHT22;52017;51.230;-2.322;2022-07-22T05:43:52;20.00;64.70
65408;DHT22;52017;51.230;-2.322;2022-07-22T05:47:34;20.10;64.70
65408;DHT22;52017;51.230;-2.322;2022-07-22T05:51:16;20.10;64.50
65408;DHT22;52017;51.230;-2.322;2022-07-22T05:55:02;20.20;64.30
65408;DHT22;52017;51.230;-2.322;2022-07-22T05:58:45;20.30;64.30
65408;DHT22;52017;51.230;-2.322;2022-07-22T06:02:27;20.30;64.00
65408;DHT22;52017;51.230;-2.322;2022-07-22T06:06:10;20.40;63.70
65408;DHT22;52017;51.230;-2.322;2022-07-22T06:09:53;20.40;63.50
65408;DHT22;52017;51.230;-2.322;2022-07-22T06:13:37;20.50;63.40
65408;DHT22;52017;51.230;-2.322;2022-07-22T06:17:19;20.60;63.20
65408;DHT22;52017;51.230;-2.322;2022-07-22T06:21:01;20.60;62.90
65408;DHT22;52017;51.230;-2.322;2022-07-22T06:24:44;20.60;62.80
65408;DHT22;52017;51.230;-2.322;2022-07-22T06:28:26;20.70;62.60
65408;DHT22;52017;51.230;-2.322;2022-07-22T06:32:08;20.80;62.50
65408;DHT22;52017;51.230;-2.322;2022-07-22T06:35:50;20.80;62.40
65408;DHT22;52017;51.230;-2.322;2022-07-22T06:39:33;20.80;62.30
65408;DHT22;52017;51.230;-2.322;2022-07-22T06:43:15;20.80;62.20
65408;DHT22;52017;51.230;-2.322;2022-07-22T06:46:57;20.80;62.20
65408;DHT22;52017;51.230;-2.322;2022-07-22T06:50:39;20.90;62.10
65408;DHT22;52017;51.230;-2.322;2022-07-22T06:54:21;20.90;62.10
65408;DHT22;52017;51.230;-2.322;2022-07-22T06:58:04;21.00;62.00
65408;DHT22;52017;51.230;-2.322;2022-07-22T07:01:46;21.00;61.80
65408;DHT22;52017;51.230;-2.322;2022-07-22T07:05:28;21.00;61.70
65408;DHT22;52017;51.230;-2.322;2022-07-22T07:09:11;21.00;61.70
65408;DHT22;52017;51.230;-2.322;2022-07-22T07:12:57;21.00;61.70
65408;DHT22;52017;51.230;-2.322;2022-07-22T07:16:40;21.00;61.80
65408;DHT22;52017;51.230;-2.322;2022-07-22T07:20:23;21.10;61.60
65408;DHT22;52017;51.230;-2.322;2022-07-22T07:24:06;21.10;61.60
65408;DHT22;52017;51.230;-2.322;2022-07-22T07:27:49;21.10;61.60
65408;DHT22;52017;51.230;-2.322;2022-07-22T07:31:38;21.30;61.50
65408;DHT22;52017;51.230;-2.322;2022-07-22T07:35:22;21.30;61.30
65408;DHT22;52017;51.230;-2.322;2022-07-22T07:39:23;21.50;61.10
65408;DHT22;52017;51.230;-2.322;2022-07-22T07:43:06;21.50;61.10
65408;DHT22;52017;51.230;-2.322;2022-07-22T07:46:58;21.50;61.00
65408;DHT22;52017;51.230;-2.322;2022-07-22T07:50:40;21.50;61.10
65408;DHT22;52017;51.230;-2.322;2022-07-22T07:54:22;21.50;60.90
65408;DHT22;52017;51.230;-2.322;2022-07-22T07:58:10;21.50;60.80
65408;DHT22;52017;51.230;-2.322;2022-07-22T08:01:57;21.50;60.80
65408;DHT22;52017;51.230;-2.322;2022-07-22T08:05:41;21.50;60.80
65408;DHT22;52017;51.230;-2.322;2022-07-22T08:09:24;21.60;60.80
65408;DHT22;52017;51.230;-2.322;2022-07-22T08:13:06;21.70;60.70
65408;DHT22;52017;51.230;-2.322;2022-07-22T08:16:50;21.90;60.60
65408;DHT22;52017;51.230;-2.322;2022-07-22T08:20:32;22.10;60.30
65408;DHT22;52017;51.230;-2.322;2022-07-22T08:24:14;22.20;60.10
65408;DHT22;52017;51.230;-2.322;2022-07-22T08:27:57;22.30;59.80
65408;DHT22;52017;51.230;-2.322;2022-07-22T08:31:39;22.40;59.80
65408;DHT22;52017;51.230;-2.322;2022-07-22T08:35:22;22.60;59.70
65408;DHT22;52017;51.230;-2.322;2022-07-22T08:39:06;22.90;59.40
65408;DHT22;52017;51.230;-2.322;2022-07-22T08:42:50;23.30;59.10
65408;DHT22;52017;51.230;-2.322;2022-07-22T08:46:33;23.80;58.10
65408;DHT22;52017;51.230;-2.322;2022-07-22T08:50:16;23.90;57.50
65408;DHT22;52017;51.230;-2.322;2022-07-22T08:53:59;23.90;57.20
65408;DHT22;52017;51.230;-2.322;2022-07-22T08:57:46;23.80;57.40
65408;DHT22;52017;51.230;-2.322;2022-07-22T09:01:28;23.90;57.10
65408;DHT22;52017;51.230;-2.322;2022-07-22T09:05:13;24.00;57.00
65408;DHT22;52017;51.230;-2.322;2022-07-22T09:09:30;24.30;56.80
65408;DHT22;52017;51.230;-2.322;2022-07-22T09:13:15;24.90;55.20
65408;DHT22;52017;51.230;-2.322;2022-07-22T09:16:59;25.20;55.30
65408;DHT22;52017;51.230;-2.322;2022-07-22T09:20:41;25.40;54.70
65408;DHT22;52017;51.230;-2.322;2022-07-22T09:28:10;25.50;54.00
65408;DHT22;52017;51.230;-2.322;2022-07-22T09:31:54;25.40;54.00
65408;DHT22;52017;51.230;-2.322;2022-07-22T09:35:38;25.30;54.50
65408;DHT22;52017;51.230;-2.322;2022-07-22T09:39:32;25.30;54.10
65408;DHT22;52017;51.230;-2.322;2022-07-22T09:43:21;25.20;54.00
65408;DHT22;52017;51.230;-2.322;2022-07-22T09:47:03;25.10;53.70
65408;DHT22;52017;51.230;-2.322;2022-07-22T09:50:46;24.80;54.20
65408;DHT22;52017;51.230;-2.322;2022-07-22T09:54:34;24.70;54.30
65408;DHT22;52017;51.230;-2.322;2022-07-22T09:58:20;24.70;54.20
65408;DHT22;52017;51.230;-2.322;2022-07-22T10:02:09;25.00;53.90
65408;DHT22;52017;51.230;-2.322;2022-07-22T10:05:54;25.30;53.30
65408;DHT22;52017;51.230;-2.322;2022-07-22T10:09:41;25.60;53.10
65408;DHT22;52017;51.230;-2.322;2022-07-22T10:13:37;26.10;52.50
65408;DHT22;52017;51.230;-2.322;2022-07-22T10:17:24;26.40;51.90
65408;DHT22;52017;51.230;-2.322;2022-07-22T10:21:10;26.40;51.10
65408;DHT22;52017;51.230;-2.322;2022-07-22T10:25:02;26.50;50.80
65408;DHT22;52017;51.230;-2.322;2022-07-22T10:28:53;26.60;50.10
65408;DHT22;52017;51.230;-2.322;2022-07-22T10:33:17;26.50;50.30
65408;DHT22;52017;51.230;-2.322;2022-07-22T10:37:00;26.20;50.80
65408;DHT22;52017;51.230;-2.322;2022-07-22T10:41:00;26.30;51.30
65408;DHT22;52017;51.230;-2.322;2022-07-22T10:44:48;26.50;50.30
65408;DHT22;52017;51.230;-2.322;2022-07-22T10:52:34;27.00;50.40
65408;DHT22;52017;51.230;-2.322;2022-07-22T10:56:21;27.10;49.70
65408;DHT22;52017;51.230;-2.322;2022-07-22T11:00:13;27.60;48.60
65408;DHT22;52017;51.230;-2.322;2022-07-22T11:04:10;28.20;47.50
65408;DHT22;52017;51.230;-2.322;2022-07-22T11:08:11;28.90;46.10
65408;DHT22;52017;51.230;-2.322;2022-07-22T11:16:24;28.80;47.60
65408;DHT22;52017;51.230;-2.322;2022-07-22T11:20:21;28.80;46.90
65408;DHT22;52017;51.230;-2.322;2022-07-22T11:24:12;28.80;44.90
65408;DHT22;52017;51.230;-2.322;2022-07-22T11:28:25;28.80;46.00
65408;DHT22;52017;51.230;-2.322;2022-07-22T11:32:13;28.40;45.30
65408;DHT22;52017;51.230;-2.322;2022-07-22T11:36:09;28.30;46.30
65408;DHT22;52017;51.230;-2.322;2022-07-22T11:40:05;28.10;46.60
65408;DHT22;52017;51.230;-2.322;2022-07-22T11:43:53;28.20;45.70
65408;DHT22;52017;51.230;-2.322;2022-07-22T11:48:07;28.60;45.80
65408;DHT22;52017;51.230;-2.322;2022-07-22T11:52:10;29.50;44.40
65408;DHT22;52017;51.230;-2.322;2022-07-22T11:56:05;30.00;43.80
65408;DHT22;52017;51.230;-2.322;2022-07-22T12:00:06;30.20;43.10
65408;DHT22;52017;51.230;-2.322;2022-07-22T12:03:58;30.20;42.20
65408;DHT22;52017;51.230;-2.322;2022-07-22T12:07:42;30.20;43.00
65408;DHT22;52017;51.230;-2.322;2022-07-22T12:11:37;30.30;42.70
65408;DHT22;52017;51.230;-2.322;2022-07-22T12:20:10;29.90;42.00
65408;DHT22;52017;51.230;-2.322;2022-07-22T12:24:24;29.30;42.80
65408;DHT22;52017;51.230;-2.322;2022-07-22T12:28:34;28.70;43.20
65408;DHT22;52017;51.230;-2.322;2022-07-22T12:36:07;27.90;44.70
65408;DHT22;52017;51.230;-2.322;2022-07-22T12:40:38;27.90;44.90
65408;DHT22;52017;51.230;-2.322;2022-07-22T12:44:28;27.60;44.70
65408;DHT22;52017;51.230;-2.322;2022-07-22T12:48:28;27.30;45.00
65408;DHT22;52017;51.230;-2.322;2022-07-22T12:52:15;26.80;45.60
65408;DHT22;52017;51.230;-2.322;2022-07-22T12:56:02;26.70;46.10
65408;DHT22;52017;51.230;-2.322;2022-07-22T13:00:21;26.70;46.10
65408;DHT22;52017;51.230;-2.322;2022-07-22T13:04:27;26.50;46.00
65408;DHT22;52017;51.230;-2.322;2022-07-22T13:08:16;26.30;46.30
65408;DHT22;52017;51.230;-2.322;2022-07-22T13:12:03;26.00;46.80
65408;DHT22;52017;51.230;-2.322;2022-07-22T13:15:50;25.70;48.50
65408;DHT22;52017;51.230;-2.322;2022-07-22T13:19:38;25.60;49.30
65408;DHT22;52017;51.230;-2.322;2022-07-22T13:23:23;25.50;49.90
65408;DHT22;52017;51.230;-2.322;2022-07-22T13:27:11;25.50;50.70
65408;DHT22;52017;51.230;-2.322;2022-07-22T13:30:57;25.70;50.70
65408;DHT22;52017;51.230;-2.322;2022-07-22T13:34:39;26.10;50.70
65408;DHT22;52017;51.230;-2.322;2022-07-22T13:38:24;26.90;50.50
65408;DHT22;52017;51.230;-2.322;2022-07-22T13:42:24;28.20;49.10
65408;DHT22;52017;51.230;-2.322;2022-07-22T13:46:29;29.90;46.60
65408;DHT22;52017;51.230;-2.322;2022-07-22T13:50:34;30.30;44.90
65408;DHT22;52017;51.230;-2.322;2022-07-22T13:54:25;30.00;45.10
65408;DHT22;52017;51.230;-2.322;2022-07-22T13:58:18;29.60;45.50
65408;DHT22;52017;51.230;-2.322;2022-07-22T14:02:08;29.30;46.00
65408;DHT22;52017;51.230;-2.322;2022-07-22T14:05:56;29.00;46.50
65408;DHT22;52017;51.230;-2.322;2022-07-22T14:09:44;28.70;46.90
65408;DHT22;52017;51.230;-2.322;2022-07-22T14:13:26;28.60;47.10
65408;DHT22;52017;51.230;-2.322;2022-07-22T14:17:10;28.50;47.10
65408;DHT22;52017;51.230;-2.322;2022-07-22T14:20:54;28.40;47.30
65408;DHT22;52017;51.230;-2.322;2022-07-22T14:24:38;28.30;47.50
65408;DHT22;52017;51.230;-2.322;2022-07-22T14:28:21;28.20;47.60
65408;DHT22;52017;51.230;-2.322;2022-07-22T14:32:19;28.10;47.80
65408;DHT22;52017;51.230;-2.322;2022-07-22T14:36:03;28.00;48.10
65408;DHT22;52017;51.230;-2.322;2022-07-22T14:39:55;27.80;48.40
65408;DHT22;52017;51.230;-2.322;2022-07-22T14:43:38;27.60;48.50
65408;DHT22;52017;51.230;-2.322;2022-07-22T14:47:25;27.60;48.60
65408;DHT22;52017;51.230;-2.322;2022-07-22T14:51:11;27.50;48.80
65408;DHT22;52017;51.230;-2.322;2022-07-22T14:55:08;27.50;48.90
65408;DHT22;52017;51.230;-2.322;2022-07-22T14:59:07;27.60;49.00
65408;DHT22;52017;51.230;-2.322;2022-07-22T15:02:53;27.60;48.90
65408;DHT22;52017;51.230;-2.322;2022-07-22T15:06:42;27.50;49.00
65408;DHT22;52017;51.230;-2.322;2022-07-22T15:10:41;27.40;49.30
65408;DHT22;52017;51.230;-2.322;2022-07-22T15:14:27;27.30;49.40
65408;DHT22;52017;51.230;-2.322;2022-07-22T15:18:18;27.10;49.60
65408;DHT22;52017;51.230;-2.322;2022-07-22T15:27:17;26.90;50.00
65408;DHT22;52017;51.230;-2.322;2022-07-22T15:31:10;26.80;50.20
65408;DHT22;52017;51.230;-2.322;2022-07-22T15:34:55;26.70;50.10
65408;DHT22;52017;51.230;-2.322;2022-07-22T15:38:39;26.70;50.20
65408;DHT22;52017;51.230;-2.322;2022-07-22T15:42:21;26.80;50.30
65408;DHT22;52017;51.230;-2.322;2022-07-22T15:46:03;26.90;50.30
65408;DHT22;52017;51.230;-2.322;2022-07-22T15:49:56;26.90;50.30
65408;DHT22;52017;51.230;-2.322;2022-07-22T15:53:46;27.00;50.50
65408;DHT22;52017;51.230;-2.322;2022-07-22T15:57:28;27.10;50.20
65408;DHT22;52017;51.230;-2.322;2022-07-22T16:01:29;27.10;50.20
65408;DHT22;52017;51.230;-2.322;2022-07-22T16:05:11;27.00;50.40
65408;DHT22;52017;51.230;-2.322;2022-07-22T16:08:56;26.90;50.50
65408;DHT22;52017;51.230;-2.322;2022-07-22T16:12:40;26.60;50.80
65408;DHT22;52017;51.230;-2.322;2022-07-22T16:16:25;26.40;51.10
65408;DHT22;52017;51.230;-2.322;2022-07-22T16:20:10;26.10;51.50
65408;DHT22;52017;51.230;-2.322;2022-07-22T16:23:52;25.90;51.80
65408;DHT22;52017;51.230;-2.322;2022-07-22T16:27:34;25.60;52.20
65408;DHT22;52017;51.230;-2.322;2022-07-22T16:31:16;25.50;53.10
65408;DHT22;52017;51.230;-2.322;2022-07-22T16:35:02;25.30;54.10
65408;DHT22;52017;51.230;-2.322;2022-07-22T16:38:44;25.10;54.40
65408;DHT22;52017;51.230;-2.322;2022-07-22T16:42:26;25.00;54.70
65408;DHT22;52017;51.230;-2.322;2022-07-22T16:46:08;24.80;55.10
65408;DHT22;52017;51.230;-2.322;2022-07-22T16:49:50;24.60;55.70
65408;DHT22;52017;51.230;-2.322;2022-07-22T16:53:32;24.40;56.30
65408;DHT22;52017;51.230;-2.322;2022-07-22T16:57:14;24.20;57.00
65408;DHT22;52017;51.230;-2.322;2022-07-22T17:00:56;24.10;57.40
65408;DHT22;52017;51.230;-2.322;2022-07-22T17:04:38;24.00;57.70
65408;DHT22;52017;51.230;-2.322;2022-07-22T17:08:21;23.80;58.50
65408;DHT22;52017;51.230;-2.322;2022-07-22T17:12:03;23.70;59.10
65408;DHT22;52017;51.230;-2.322;2022-07-22T17:15:45;23.60;59.50
65408;DHT22;52017;51.230;-2.322;2022-07-22T17:19:27;23.60;59.90
65408;DHT22;52017;51.230;-2.322;2022-07-22T17:23:09;23.60;60.10
65408;DHT22;52017;51.230;-2.322;2022-07-22T17:26:52;23.60;59.90
65408;DHT22;52017;51.230;-2.322;2022-07-22T17:30:33;23.60;59.80
65408;DHT22;52017;51.230;-2.322;2022-07-22T17:34:15;23.50;59.90
65408;DHT22;52017;51.230;-2.322;2022-07-22T17:38:02;23.40;60.20
65408;DHT22;52017;51.230;-2.322;2022-07-22T17:41:45;23.30;60.40
65408;DHT22;52017;51.230;-2.322;2022-07-22T17:45:27;23.30;60.50
65408;DHT22;52017;51.230;-2.322;2022-07-22T17:49:09;23.20;60.80
65408;DHT22;52017;51.230;-2.322;2022-07-22T17:52:51;23.10;60.90
65408;DHT22;52017;51.230;-2.322;2022-07-22T17:56:33;23.10;61.00
65408;DHT22;52017;51.230;-2.322;2022-07-22T18:00:16;23.10;61.20
65408;DHT22;52017;51.230;-2.322;2022-07-22T18:03:58;23.00;61.50
65408;DHT22;52017;51.230;-2.322;2022-07-22T18:07:40;22.90;61.70
65408;DHT22;52017;51.230;-2.322;2022-07-22T18:11:22;22.80;61.90
65408;DHT22;52017;51.230;-2.322;2022-07-22T18:15:05;22.80;62.20
65408;DHT22;52017;51.230;-2.322;2022-07-22T18:18:47;22.80;62.20
65408;DHT22;52017;51.230;-2.322;2022-07-22T18:22:29;22.80;62.20
65408;DHT22;52017;51.230;-2.322;2022-07-22T18:26:11;22.80;61.90
65408;DHT22;52017;51.230;-2.322;2022-07-22T18:29:53;22.80;61.90
65408;DHT22;52017;51.230;-2.322;2022-07-22T18:33:36;22.90;62.00
65408;DHT22;52017;51.230;-2.322;2022-07-22T18:37:18;22.90;61.90
65408;DHT22;52017;51.230;-2.322;2022-07-22T18:41:01;23.00;61.80
65408;DHT22;52017;51.230;-2.322;2022-07-22T18:44:43;22.90;61.60
65408;DHT22;52017;51.230;-2.322;2022-07-22T18:48:26;22.90;61.50
65408;DHT22;52017;51.230;-2.322;2022-07-22T18:52:08;22.80;61.60
65408;DHT22;52017;51.230;-2.322;2022-07-22T18:55:50;22.80;62.00
65408;DHT22;52017;51.230;-2.322;2022-07-22T18:59:33;22.70;62.20
65408;DHT22;52017;51.230;-2.322;2022-07-22T19:03:15;22.60;62.40
65408;DHT22;52017;51.230;-2.322;2022-07-22T19:06:57;22.60;62.50
65408;DHT22;52017;51.230;-2.322;2022-07-22T19:10:39;22.50;62.70
65408;DHT22;52017;51.230;-2.322;2022-07-22T19:14:21;22.40;62.70
65408;DHT22;52017;51.230;-2.322;2022-07-22T19:18:03;22.30;62.60
65408;DHT22;52017;51.230;-2.322;2022-07-22T19:21:45;22.20;62.80
65408;DHT22;52017;51.230;-2.322;2022-07-22T19:25:27;22.10;62.90
65408;DHT22;52017;51.230;-2.322;2022-07-22T19:29:09;22.00;62.90
65408;DHT22;52017;51.230;-2.322;2022-07-22T19:32:51;21.90;63.20
65408;DHT22;52017;51.230;-2.322;2022-07-22T19:36:33;21.80;63.40
65408;DHT22;52017;51.230;-2.322;2022-07-22T19:40:15;21.60;63.70
65408;DHT22;52017;51.230;-2.322;2022-07-22T19:43:58;21.60;64.00
65408;DHT22;52017;51.230;-2.322;2022-07-22T19:47:40;21.50;64.00
65408;DHT22;52017;51.230;-2.322;2022-07-22T19:51:22;21.40;63.80
65408;DHT22;52017;51.230;-2.322;2022-07-22T19:55:05;21.20;63.70
65408;DHT22;52017;51.230;-2.322;2022-07-22T19:58:47;21.20;63.80
65408;DHT22;52017;51.230;-2.322;2022-07-22T20:02:29;21.10;63.60
65408;DHT22;52017;51.230;-2.322;2022-07-22T20:06:12;21.00;63.40
65408;DHT22;52017;51.230;-2.322;2022-07-22T20:09:56;21.00;63.30
65408;DHT22;52017;51.230;-2.322;2022-07-22T20:13:38;20.90;62.90
65408;DHT22;52017;51.230;-2.322;2022-07-22T20:17:20;20.80;62.30
65408;DHT22;52017;51.230;-2.322;2022-07-22T20:21:02;20.70;62.10
65408;DHT22;52017;51.230;-2.322;2022-07-22T20:24:45;20.60;62.00
65408;DHT22;52017;51.230;-2.322;2022-07-22T20:28:27;20.50;62.00
65408;DHT22;52017;51.230;-2.322;2022-07-22T20:32:09;20.40;62.00
65408;DHT22;52017;51.230;-2.322;2022-07-22T20:35:51;20.40;62.00
65408;DHT22;52017;51.230;-2.322;2022-07-22T20:39:33;20.30;62.00
65408;DHT22;52017;51.230;-2.322;2022-07-22T20:43:15;20.20;62.00
65408;DHT22;52017;51.230;-2.322;2022-07-22T20:46:57;20.20;62.10
65408;DHT22;52017;51.230;-2.322;2022-07-22T20:50:39;20.10;62.10
65408;DHT22;52017;51.230;-2.322;2022-07-22T20:54:21;20.10;62.10
65408;DHT22;52017;51.230;-2.322;2022-07-22T20:58:03;20.00;62.10
65408;DHT22;52017;51.230;-2.322;2022-07-22T21:01:46;20.00;62.20
65408;DHT22;52017;51.230;-2.322;2022-07-22T21:05:28;19.90;62.40
65408;DHT22;52017;51.230;-2.322;2022-07-22T21:09:10;19.90;62.40
65408;DHT22;52017;51.230;-2.322;2022-07-22T21:12:52;19.80;62.50
65408;DHT22;52017;51.230;-2.322;2022-07-22T21:16:34;19.70;62.60
65408;DHT22;52017;51.230;-2.322;2022-07-22T21:20:16;19.60;62.60
65408;DHT22;52017;51.230;-2.322;2022-07-22T21:23:58;19.60;62.70
65408;DHT22;52017;51.230;-2.322;2022-07-22T21:27:41;19.50;62.90
65408;DHT22;52017;51.230;-2.322;2022-07-22T21:31:24;19.50;62.90
65408;DHT22;52017;51.230;-2.322;2022-07-22T21:35:07;19.40;62.90
65408;DHT22;52017;51.230;-2.322;2022-07-22T21:38:50;19.30;63.00
65408;DHT22;52017;51.230;-2.322;2022-07-22T21:42:32;19.20;63.10
65408;DHT22;52017;51.230;-2.322;2022-07-22T21:46:15;19.10;63.20
65408;DHT22;52017;51.230;-2.322;2022-07-22T21:49:58;19.10;63.30
65408;DHT22;52017;51.230;-2.322;2022-07-22T21:53:40;19.00;63.40
65408;DHT22;52017;51.230;-2.322;2022-07-22T21:57:22;19.00;63.60
65408;DHT22;52017;51.230;-2.322;2022-07-22T22:01:04;19.00;63.80
65408;DHT22;52017;51.230;-2.322;2022-07-22T22:04:46;19.00;64.00
65408;DHT22;52017;51.230;-2.322;2022-07-22T22:08:28;18.90;64.20
65408;DHT22;52017;51.230;-2.322;2022-07-22T22:12:10;18.80;64.30
65408;DHT22;52017;51.230;-2.322;2022-07-22T22:15:53;18.80;64.50
65408;DHT22;52017;51.230;-2.322;2022-07-22T22:19:35;18.80;64.60
65408;DHT22;52017;51.230;-2.322;2022-07-22T22:23:17;18.70;64.80
65408;DHT22;52017;51.230;-2.322;2022-07-22T22:26:59;18.70;64.90
65408;DHT22;52017;51.230;-2.322;2022-07-22T22:30:41;18.70;65.00
65408;DHT22;52017;51.230;-2.322;2022-07-22T22:34:23;18.60;65.10
65408;DHT22;52017;51.230;-2.322;2022-07-22T22:38:05;18.60;65.30
65408;DHT22;52017;51.230;-2.322;2022-07-22T22:41:47;18.60;65.40
65408;DHT22;52017;51.230;-2.322;2022-07-22T22:45:29;18.50;65.40
65408;DHT22;52017;51.230;-2.322;2022-07-22T22:49:11;18.50;65.40
65408;DHT22;52017;51.230;-2.322;2022-07-22T22:52:54;18.50;65.50
65408;DHT22;52017;51.230;-2.322;2022-07-22T22:56:36;18.50;65.60
65408;DHT22;52017;51.230;-2.322;2022-07-22T23:00:18;18.50;65.60
65408;DHT22;52017;51.230;-2.322;2022-07-22T23:04:00;18.50;65.70
65408;DHT22;52017;51.230;-2.322;2022-07-22T23:07:42;18.50;65.60
65408;DHT22;52017;51.230;-2.322;2022-07-22T23:11:24;18.40;65.60
65408;DHT22;52017;51.230;-2.322;2022-07-22T23:15:06;18.40;65.60
65408;DHT22;52017;51.230;-2.322;2022-07-22T23:18:48;18.40;65.50
65408;DHT22;52017;51.230;-2.322;2022-07-22T23:22:30;18.30;65.50
65408;DHT22;52017;51.230;-2.322;2022-07-22T23:26:13;18.30;65.60
65408;DHT22;52017;51.230;-2.322;2022-07-22T23:29:55;18.20;65.60
65408;DHT22;52017;51.230;-2.322;2022-07-22T23:33:37;18.10;65.60
65408;DHT22;52017;51.230;-2.322;2022-07-22T23:37:19;18.10;65.60
65408;DHT22;52017;51.230;-2.322;2022-07-22T23:41:01;18.00;65.60
65408;DHT22;52017;51.230;-2.322;2022-07-22T23:44:46;18.00;65.60